sensor_id;sensor_type;location;lat;lon;timestamp;P1;durP1;ratioP1;P2;durP2;ratioP2
8663;SDS011;4369;47.842;13.096;2022-11-13T00:01:30;27.13;;;18.20;;
8663;SDS011;4369;47.842;13.096;2022-11-13T00:03:57;28.77;;;17.80;;
8663;SDS011;4369;47.842;13.096;2022-11-13T00:06:23;20.60;;;16.07;;
8663;SDS011;4369;47.842;13.096;2022-11-13T00:08:52;17.93;;;15.17;;
8663;SDS011;4369;47.842;13.096;2022-11-13T00:11:19;18.17;;;15.20;;
8663;SDS011;4369;47.842;13.096;2022-11-13T00:13:48;17.50;;;14.27;;
8663;SDS011;4369;47.842;13.096;2022-11-13T00:16:16;15.20;;;13.57;;
8663;SDS011;4369;47.842;13.096;2022-11-13T00:18:44;15.03;;;13.00;;
8663;SDS011;4369;47.842;13.096;2022-11-13T00:21:12;13.60;;;12.30;;
8663;SDS011;4369;47.842;13.096;2022-11-13T00:23:41;14.40;;;12.63;;
8663;SDS011;4369;47.842;13.096;2022-11-13T00:26:09;13.37;;;11.93;;
8663;SDS011;4369;47.842;13.096;2022-11-13T00:28:37;14.17;;;11.97;;
8663;SDS011;4369;47.842;13.096;2022-11-13T00:31:06;14.87;;;13.13;;
8663;SDS011;4369;47.842;13.096;2022-11-13T00:33:33;14.37;;;12.87;;
8663;SDS011;4369;47.842;13.096;2022-11-13T00:36:01;14.10;;;12.60;;
8663;SDS011;4369;47.842;13.096;2022-11-13T00:38:28;13.13;;;11.83;;
8663;SDS011;4369;47.842;13.096;2022-11-13T00:40:55;12.73;;;11.00;;
8663;SDS011;4369;47.842;13.096;2022-11-13T00:43:22;13.23;;;11.27;;
8663;SDS011;4369;47.842;13.096;2022-11-13T00:45:49;12.13;;;10.00;;
8663;SDS011;4369;47.842;13.096;2022-11-13T00:48:18;10.13;;;9.13;;
8663;SDS011;4369;47.842;13.096;2022-11-13T00:50:45;8.40;;;7.37;;
8663;SDS011;4369;47.842;13.096;2022-11-13T00:53:12;9.73;;;7.30;;
8663;SDS011;4369;47.842;13.096;2022-11-13T00:55:40;8.53;;;6.40;;
8663;SDS011;4369;47.842;13.096;2022-11-13T00:58:07;7.13;;;6.43;;
8663;SDS011;4369;47.842;13.096;2022-11-13T01:00:34;8.10;;;5.97;;
8663;SDS011;4369;47.842;13.096;2022-11-13T01:03:01;7.87;;;5.63;;
8663;SDS011;4369;47.842;13.096;2022-11-13T01:05:29;6.73;;;6.13;;
8663;SDS011;4369;47.842;13.096;2022-11-13T01:08:00;7.97;;;6.37;;
8663;SDS011;4369;47.842;13.096;2022-11-13T01:10:27;6.90;;;6.20;;
8663;SDS011;4369;47.842;13.096;2022-11-13T01:12:53;7.27;;;6.50;;
8663;SDS011;4369;47.842;13.096;2022-11-13T01:15:20;7.83;;;7.10;;
8663;SDS011;4369;47.842;13.096;2022-11-13T01:17:47;7.50;;;6.70;;
8663;SDS011;4369;47.842;13.096;2022-11-13T01:20:15;9.43;;;7.67;;
8663;SDS011;4369;47.842;13.096;2022-11-13T01:22:44;10.70;;;8.60;;
8663;SDS011;4369;47.842;13.096;2022-11-13T01:25:11;8.30;;;7.50;;
8663;SDS011;4369;47.842;13.096;2022-11-13T01:27:37;11.37;;;10.17;;
8663;SDS011;4369;47.842;13.096;2022-11-13T01:30:05;17.97;;;11.63;;
8663;SDS011;4369;47.842;13.096;2022-11-13T01:32:33;13.67;;;11.17;;
8663;SDS011;4369;47.842;13.096;2022-11-13T01:35:00;19.07;;;12.50;;
8663;SDS011;4369;47.842;13.096;2022-11-13T01:37:27;15.77;;;12.00;;
8663;SDS011;4369;47.842;13.096;2022-11-13T01:39:55;12.40;;;11.10;;
8663;SDS011;4369;47.842;13.096;2022-11-13T01:42:22;24.23;;;12.93;;
8663;SDS011;4369;47.842;13.096;2022-11-13T01:44:50;23.33;;;13.67;;
8663;SDS011;4369;47.842;13.096;2022-11-13T01:47:18;26.77;;;15.60;;
8663;SDS011;4369;47.842;13.096;2022-11-13T01:49:46;33.70;;;17.00;;
8663;SDS011;4369;47.842;13.096;2022-11-13T01:52:16;26.53;;;14.83;;
8663;SDS011;4369;47.842;13.096;2022-11-13T01:54:47;22.50;;;15.27;;
8663;SDS011;4369;47.842;13.096;2022-11-13T01:57:18;45.57;;;17.17;;
8663;SDS011;4369;47.842;13.096;2022-11-13T01:59:47;24.37;;;15.83;;
8663;SDS011;4369;47.842;13.096;2022-11-13T02:02:17;24.87;;;16.20;;
8663;SDS011;4369;47.842;13.096;2022-11-13T02:04:44;22.57;;;14.73;;
8663;SDS011;4369;47.842;13.096;2022-11-13T02:07:12;26.57;;;15.73;;
8663;SDS011;4369;47.842;13.096;2022-11-13T02:09:40;23.37;;;14.90;;
8663;SDS011;4369;47.842;13.096;2022-11-13T02:12:10;18.63;;;13.60;;
8663;SDS011;4369;47.842;13.096;2022-11-13T02:14:40;26.27;;;13.53;;
8663;SDS011;4369;47.842;13.096;2022-11-13T02:17:12;13.63;;;11.40;;
8663;SDS011;4369;47.842;13.096;2022-11-13T02:19:43;11.57;;;10.37;;
8663;SDS011;4369;47.842;13.096;2022-11-13T02:22:14;21.47;;;13.60;;
8663;SDS011;4369;47.842;13.096;2022-11-13T02:24:46;16.83;;;11.83;;
8663;SDS011;4369;47.842;13.096;2022-11-13T02:27:15;18.53;;;11.67;;
8663;SDS011;4369;47.842;13.096;2022-11-13T02:29:46;33.07;;;12.43;;
8663;SDS011;4369;47.842;13.096;2022-11-13T02:32:13;17.17;;;12.17;;
8663;SDS011;4369;47.842;13.096;2022-11-13T02:34:40;15.63;;;11.43;;
8663;SDS011;4369;47.842;13.096;2022-11-13T02:37:07;16.87;;;10.87;;
8663;SDS011;4369;47.842;13.096;2022-11-13T02:39:34;15.43;;;10.13;;
8663;SDS011;4369;47.842;13.096;2022-11-13T02:42:02;20.10;;;11.27;;
8663;SDS011;4369;47.842;13.096;2022-11-13T02:44:29;14.10;;;9.93;;
8663;SDS011;4369;47.842;13.096;2022-11-13T02:46:56;15.60;;;10.30;;
8663;SDS011;4369;47.842;13.096;2022-11-13T02:49:22;17.90;;;11.43;;
8663;SDS011;4369;47.842;13.096;2022-11-13T02:51:49;50.77;;;17.70;;
8663;SDS011;4369;47.842;13.096;2022-11-13T02:54:16;31.80;;;14.07;;
8663;SDS011;4369;47.842;13.096;2022-11-13T02:56:43;44.77;;;16.30;;
8663;SDS011;4369;47.842;13.096;2022-11-13T02:59:11;35.77;;;15.30;;
8663;SDS011;4369;47.842;13.096;2022-11-13T03:01:38;37.90;;;17.97;;
8663;SDS011;4369;47.842;13.096;2022-11-13T03:04:05;63.27;;;17.33;;
8663;SDS011;4369;47.842;13.096;2022-11-13T03:06:32;25.80;;;15.40;;
8663;SDS011;4369;47.842;13.096;2022-11-13T03:08:59;21.83;;;14.67;;
8663;SDS011;4369;47.842;13.096;2022-11-13T03:11:25;32.90;;;16.00;;
8663;SDS011;4369;47.842;13.096;2022-11-13T03:13:52;21.03;;;15.37;;
8663;SDS011;4369;47.842;13.096;2022-11-13T03:16:20;20.97;;;14.87;;
8663;SDS011;4369;47.842;13.096;2022-11-13T03:18:47;32.60;;;16.53;;
8663;SDS011;4369;47.842;13.096;2022-11-13T03:21:15;30.23;;;16.17;;
8663;SDS011;4369;47.842;13.096;2022-11-13T03:23:42;29.40;;;15.77;;
8663;SDS011;4369;47.842;13.096;2022-11-13T03:26:12;21.80;;;14.93;;
8663;SDS011;4369;47.842;13.096;2022-11-13T03:28:40;41.03;;;15.80;;
8663;SDS011;4369;47.842;13.096;2022-11-13T03:31:08;23.80;;;15.00;;
8663;SDS011;4369;47.842;13.096;2022-11-13T03:33:36;42.37;;;14.23;;
8663;SDS011;4369;47.842;13.096;2022-11-13T03:36:03;32.00;;;13.60;;
8663;SDS011;4369;47.842;13.096;2022-11-13T03:38:30;30.97;;;13.17;;
8663;SDS011;4369;47.842;13.096;2022-11-13T03:40:57;31.17;;;12.27;;
8663;SDS011;4369;47.842;13.096;2022-11-13T03:43:24;19.97;;;11.17;;
8663;SDS011;4369;47.842;13.096;2022-11-13T03:45:52;19.40;;;12.10;;
8663;SDS011;4369;47.842;13.096;2022-11-13T03:48:18;33.40;;;12.17;;
8663;SDS011;4369;47.842;13.096;2022-11-13T03:50:47;21.00;;;11.90;;
8663;SDS011;4369;47.842;13.096;2022-11-13T03:53:17;12.93;;;10.73;;
8663;SDS011;4369;47.842;13.096;2022-11-13T03:55:44;13.20;;;11.87;;
8663;SDS011;4369;47.842;13.096;2022-11-13T03:58:11;15.13;;;12.33;;
8663;SDS011;4369;47.842;13.096;2022-11-13T04:00:39;14.30;;;11.83;;
8663;SDS011;4369;47.842;13.096;2022-11-13T04:03:06;12.20;;;10.70;;
8663;SDS011;4369;47.842;13.096;2022-11-13T04:05:34;11.63;;;10.47;;
8663;SDS011;4369;47.842;13.096;2022-11-13T04:08:02;11.93;;;10.73;;
8663;SDS011;4369;47.842;13.096;2022-11-13T04:10:30;12.43;;;10.03;;
8663;SDS011;4369;47.842;13.096;2022-11-13T04:12:57;11.50;;;10.30;;
8663;SDS011;4369;47.842;13.096;2022-11-13T04:15:24;12.23;;;10.47;;
8663;SDS011;4369;47.842;13.096;2022-11-13T04:17:51;13.40;;;11.40;;
8663;SDS011;4369;47.842;13.096;2022-11-13T04:20:17;21.40;;;10.20;;
8663;SDS011;4369;47.842;13.096;2022-11-13T04:22:44;14.97;;;9.87;;
8663;SDS011;4369;47.842;13.096;2022-11-13T04:25:12;17.17;;;9.73;;
8663;SDS011;4369;47.842;13.096;2022-11-13T04:27:39;11.27;;;9.30;;
8663;SDS011;4369;47.842;13.096;2022-11-13T04:30:07;10.77;;;9.47;;
8663;SDS011;4369;47.842;13.096;2022-11-13T04:32:34;18.37;;;10.53;;
8663;SDS011;4369;47.842;13.096;2022-11-13T04:35:01;13.37;;;9.63;;
8663;SDS011;4369;47.842;13.096;2022-11-13T04:37:28;10.57;;;9.47;;
8663;SDS011;4369;47.842;13.096;2022-11-13T04:39:55;9.60;;;8.43;;
8663;SDS011;4369;47.842;13.096;2022-11-13T04:42:24;9.17;;;8.37;;
8663;SDS011;4369;47.842;13.096;2022-11-13T04:45:07;8.83;;;7.93;;
8663;SDS011;4369;47.842;13.096;2022-11-13T04:47:35;8.30;;;7.60;;
8663;SDS011;4369;47.842;13.096;2022-11-13T04:50:01;9.80;;;8.90;;
8663;SDS011;4369;47.842;13.096;2022-11-13T04:52:28;10.07;;;9.10;;
8663;SDS011;4369;47.842;13.096;2022-11-13T04:54:55;8.83;;;8.03;;
8663;SDS011;4369;47.842;13.096;2022-11-13T04:57:24;8.37;;;7.57;;
8663;SDS011;4369;47.842;13.096;2022-11-13T04:59:51;8.57;;;7.87;;
8663;SDS011;4369;47.842;13.096;2022-11-13T05:02:17;8.80;;;8.00;;
8663;SDS011;4369;47.842;13.096;2022-11-13T05:04:45;9.43;;;8.48;;
8663;SDS011;4369;47.842;13.096;2022-11-13T05:07:11;9.70;;;8.90;;
8663;SDS011;4369;47.842;13.096;2022-11-13T05:09:38;8.80;;;8.00;;
8663;SDS011;4369;47.842;13.096;2022-11-13T05:12:05;9.93;;;8.50;;
8663;SDS011;4369;47.842;13.096;2022-11-13T05:14:34;9.60;;;8.57;;
8663;SDS011;4369;47.842;13.096;2022-11-13T05:17:02;8.77;;;7.77;;
8663;SDS011;4369;47.842;13.096;2022-11-13T05:19:30;8.13;;;7.30;;
8663;SDS011;4369;47.842;13.096;2022-11-13T05:21:58;8.00;;;7.20;;
8663;SDS011;4369;47.842;13.096;2022-11-13T05:24:25;10.30;;;8.23;;
8663;SDS011;4369;47.842;13.096;2022-11-13T05:26:53;8.37;;;7.50;;
8663;SDS011;4369;47.842;13.096;2022-11-13T05:29:20;7.90;;;6.97;;
8663;SDS011;4369;47.842;13.096;2022-11-13T05:31:48;7.90;;;7.10;;
8663;SDS011;4369;47.842;13.096;2022-11-13T05:34:16;7.83;;;7.03;;
8663;SDS011;4369;47.842;13.096;2022-11-13T05:36:42;7.97;;;6.73;;
8663;SDS011;4369;47.842;13.096;2022-11-13T05:39:09;8.80;;;7.40;;
8663;SDS011;4369;47.842;13.096;2022-11-13T05:41:36;8.63;;;7.73;;
8663;SDS011;4369;47.842;13.096;2022-11-13T05:44:03;9.00;;;8.13;;
8663;SDS011;4369;47.842;13.096;2022-11-13T05:46:30;9.23;;;8.33;;
8663;SDS011;4369;47.842;13.096;2022-11-13T05:48:59;10.13;;;8.47;;
8663;SDS011;4369;47.842;13.096;2022-11-13T05:51:27;10.10;;;9.10;;
8663;SDS011;4369;47.842;13.096;2022-11-13T05:53:55;10.27;;;9.27;;
8663;SDS011;4369;47.842;13.096;2022-11-13T05:56:24;10.00;;;9.00;;
8663;SDS011;4369;47.842;13.096;2022-11-13T05:58:53;9.93;;;8.93;;
8663;SDS011;4369;47.842;13.096;2022-11-13T06:01:21;9.77;;;8.83;;
8663;SDS011;4369;47.842;13.096;2022-11-13T06:03:50;10.83;;;9.17;;
8663;SDS011;4369;47.842;13.096;2022-11-13T06:06:20;11.87;;;9.50;;
8663;SDS011;4369;47.842;13.096;2022-11-13T06:08:48;11.03;;;9.60;;
8663;SDS011;4369;47.842;13.096;2022-11-13T06:11:17;12.03;;;9.00;;
8663;SDS011;4369;47.842;13.096;2022-11-13T06:13:45;10.10;;;8.47;;
8663;SDS011;4369;47.842;13.096;2022-11-13T06:16:13;9.87;;;8.30;;
8663;SDS011;4369;47.842;13.096;2022-11-13T06:18:42;12.80;;;8.87;;
8663;SDS011;4369;47.842;13.096;2022-11-13T06:21:13;22.10;;;11.23;;
8663;SDS011;4369;47.842;13.096;2022-11-13T06:23:46;18.00;;;9.83;;
8663;SDS011;4369;47.842;13.096;2022-11-13T06:26:14;16.87;;;9.60;;
8663;SDS011;4369;47.842;13.096;2022-11-13T06:28:45;14.13;;;10.30;;
8663;SDS011;4369;47.842;13.096;2022-11-13T06:31:13;21.10;;;12.35;;
8663;SDS011;4369;47.842;13.096;2022-11-13T06:33:41;21.73;;;11.77;;
8663;SDS011;4369;47.842;13.096;2022-11-13T06:36:14;35.33;;;11.57;;
8663;SDS011;4369;47.842;13.096;2022-11-13T06:38:46;14.77;;;10.23;;
8663;SDS011;4369;47.842;13.096;2022-11-13T06:41:15;9.60;;;8.60;;
8663;SDS011;4369;47.842;13.096;2022-11-13T06:43:43;9.00;;;8.10;;
8663;SDS011;4369;47.842;13.096;2022-11-13T06:46:17;8.33;;;7.53;;
8663;SDS011;4369;47.842;13.096;2022-11-13T06:48:45;7.53;;;6.87;;
8663;SDS011;4369;47.842;13.096;2022-11-13T06:51:13;8.40;;;7.30;;
8663;SDS011;4369;47.842;13.096;2022-11-13T06:53:42;8.33;;;7.57;;
8663;SDS011;4369;47.842;13.096;2022-11-13T06:56:10;8.23;;;7.43;;
8663;SDS011;4369;47.842;13.096;2022-11-13T06:58:37;7.87;;;7.13;;
8663;SDS011;4369;47.842;13.096;2022-11-13T07:01:05;9.20;;;8.30;;
8663;SDS011;4369;47.842;13.096;2022-11-13T07:03:33;10.63;;;9.57;;
8663;SDS011;4369;47.842;13.096;2022-11-13T07:06:00;10.43;;;9.43;;
8663;SDS011;4369;47.842;13.096;2022-11-13T07:08:28;12.50;;;10.13;;
8663;SDS011;4369;47.842;13.096;2022-11-13T07:10:55;9.37;;;8.47;;
8663;SDS011;4369;47.842;13.096;2022-11-13T07:13:24;9.60;;;8.60;;
8663;SDS011;4369;47.842;13.096;2022-11-13T07:15:59;8.80;;;7.90;;
8663;SDS011;4369;47.842;13.096;2022-11-13T07:18:28;8.50;;;7.70;;
8663;SDS011;4369;47.842;13.096;2022-11-13T07:20:55;8.97;;;8.07;;
8663;SDS011;4369;47.842;13.096;2022-11-13T07:23:22;10.07;;;9.00;;
8663;SDS011;4369;47.842;13.096;2022-11-13T07:25:51;20.90;;;12.67;;
8663;SDS011;4369;47.842;13.096;2022-11-13T07:28:18;20.17;;;14.23;;
8663;SDS011;4369;47.842;13.096;2022-11-13T07:30:46;22.90;;;14.17;;
8663;SDS011;4369;47.842;13.096;2022-11-13T07:33:13;45.97;;;14.87;;
8663;SDS011;4369;47.842;13.096;2022-11-13T07:35:40;65.37;;;15.87;;
8663;SDS011;4369;47.842;13.096;2022-11-13T07:38:07;117.95;;;21.15;;
8663;SDS011;4369;47.842;13.096;2022-11-13T07:40:34;23.07;;;15.17;;
8663;SDS011;4369;47.842;13.096;2022-11-13T07:43:01;60.23;;;17.30;;
8663;SDS011;4369;47.842;13.096;2022-11-13T07:45:28;52.63;;;15.07;;
8663;SDS011;4369;47.842;13.096;2022-11-13T07:48:00;63.77;;;16.67;;
8663;SDS011;4369;47.842;13.096;2022-11-13T07:50:30;53.03;;;15.03;;
8663;SDS011;4369;47.842;13.096;2022-11-13T07:52:59;19.27;;;12.47;;
8663;SDS011;4369;47.842;13.096;2022-11-13T07:55:27;37.20;;;14.90;;
8663;SDS011;4369;47.842;13.096;2022-11-13T07:57:54;42.87;;;15.20;;
8663;SDS011;4369;47.842;13.096;2022-11-13T08:00:22;20.95;;;13.40;;
8663;SDS011;4369;47.842;13.096;2022-11-13T08:02:49;24.27;;;11.97;;
8663;SDS011;4369;47.842;13.096;2022-11-13T08:05:17;25.03;;;11.40;;
8663;SDS011;4369;47.842;13.096;2022-11-13T08:07:45;10.87;;;9.77;;
8663;SDS011;4369;47.842;13.096;2022-11-13T08:10:13;11.47;;;9.40;;
8663;SDS011;4369;47.842;13.096;2022-11-13T08:12:40;9.83;;;8.97;;
8663;SDS011;4369;47.842;13.096;2022-11-13T08:15:07;10.47;;;9.17;;
8663;SDS011;4369;47.842;13.096;2022-11-13T08:17:35;9.03;;;8.23;;
8663;SDS011;4369;47.842;13.096;2022-11-13T08:20:02;35.67;;;11.30;;
8663;SDS011;4369;47.842;13.096;2022-11-13T08:22:37;25.50;;;10.70;;
8663;SDS011;4369;47.842;13.096;2022-11-13T08:25:04;11.67;;;9.10;;
8663;SDS011;4369;47.842;13.096;2022-11-13T08:27:31;9.77;;;8.77;;
8663;SDS011;4369;47.842;13.096;2022-11-13T08:29:58;9.57;;;8.37;;
8663;SDS011;4369;47.842;13.096;2022-11-13T08:32:25;10.13;;;9.00;;
8663;SDS011;4369;47.842;13.096;2022-11-13T08:34:52;12.57;;;10.57;;
8663;SDS011;4369;47.842;13.096;2022-11-13T08:37:19;17.03;;;9.00;;
8663;SDS011;4369;47.842;13.096;2022-11-13T08:39:47;10.83;;;9.73;;
8663;SDS011;4369;47.842;13.096;2022-11-13T08:42:13;20.17;;;11.80;;
8663;SDS011;4369;47.842;13.096;2022-11-13T08:44:40;41.70;;;13.27;;
8663;SDS011;4369;47.842;13.096;2022-11-13T08:47:08;66.03;;;14.30;;
8663;SDS011;4369;47.842;13.096;2022-11-13T08:49:35;17.30;;;11.07;;
8663;SDS011;4369;47.842;13.096;2022-11-13T08:52:01;44.70;;;13.50;;
8663;SDS011;4369;47.842;13.096;2022-11-13T08:54:28;169.37;;;22.13;;
8663;SDS011;4369;47.842;13.096;2022-11-13T08:56:57;126.47;;;19.07;;
8663;SDS011;4369;47.842;13.096;2022-11-13T08:59:23;16.13;;;10.80;;
8663;SDS011;4369;47.842;13.096;2022-11-13T09:01:51;10.23;;;9.13;;
8663;SDS011;4369;47.842;13.096;2022-11-13T09:04:22;9.73;;;8.73;;
8663;SDS011;4369;47.842;13.096;2022-11-13T09:06:49;10.10;;;8.97;;
8663;SDS011;4369;47.842;13.096;2022-11-13T09:09:16;10.33;;;9.23;;
8663;SDS011;4369;47.842;13.096;2022-11-13T09:11:43;11.27;;;10.07;;
8663;SDS011;4369;47.842;13.096;2022-11-13T09:14:11;12.17;;;10.97;;
8663;SDS011;4369;47.842;13.096;2022-11-13T09:16:39;13.57;;;10.27;;
8663;SDS011;4369;47.842;13.096;2022-11-13T09:19:06;14.20;;;11.23;;
8663;SDS011;4369;47.842;13.096;2022-11-13T09:21:33;11.60;;;10.23;;
8663;SDS011;4369;47.842;13.096;2022-11-13T09:24:00;12.20;;;10.53;;
8663;SDS011;4369;47.842;13.096;2022-11-13T09:26:27;10.40;;;8.90;;
8663;SDS011;4369;47.842;13.096;2022-11-13T09:28:54;11.17;;;9.47;;
8663;SDS011;4369;47.842;13.096;2022-11-13T09:31:22;10.03;;;8.97;;
8663;SDS011;4369;47.842;13.096;2022-11-13T10:48:57;7.88;;;7.18;;
8663;SDS011;4369;47.842;13.096;2022-11-13T10:51:25;7.40;;;6.80;;
8663;SDS011;4369;47.842;13.096;2022-11-13T10:53:53;7.75;;;7.05;;
8663;SDS011;4369;47.842;13.096;2022-11-13T10:56:24;8.02;;;7.35;;
8663;SDS011;4369;47.842;13.096;2022-11-13T10:59:03;8.18;;;7.47;;
8663;SDS011;4369;47.842;13.096;2022-11-13T11:01:35;8.35;;;7.65;;
8663;SDS011;4369;47.842;13.096;2022-11-13T11:04:04;8.18;;;7.40;;
8663;SDS011;4369;47.842;13.096;2022-11-13T11:06:32;8.50;;;7.80;;
8663;SDS011;4369;47.842;13.096;2022-11-13T11:09:04;7.72;;;7.00;;
8663;SDS011;4369;47.842;13.096;2022-11-13T11:11:33;6.97;;;6.47;;
8663;SDS011;4369;47.842;13.096;2022-11-13T11:14:18;7.57;;;6.97;;
8663;SDS011;4369;47.842;13.096;2022-11-13T11:16:48;6.78;;;6.28;;
8663;SDS011;4369;47.842;13.096;2022-11-13T11:19:20;5.65;;;5.20;;
8663;SDS011;4369;47.842;13.096;2022-11-13T11:21:53;6.00;;;5.60;;
8663;SDS011;4369;47.842;13.096;2022-11-13T11:24:30;5.55;;;5.15;;
8663;SDS011;4369;47.842;13.096;2022-11-13T11:27:02;5.70;;;5.20;;
8663;SDS011;4369;47.842;13.096;2022-11-13T11:29:36;5.95;;;5.45;;
8663;SDS011;4369;47.842;13.096;2022-11-13T11:32:09;5.63;;;5.22;;
8663;SDS011;4369;47.842;13.096;2022-11-13T11:34:43;5.40;;;5.10;;
8663;SDS011;4369;47.842;13.096;2022-11-13T11:37:14;6.45;;;5.95;;
8663;SDS011;4369;47.842;13.096;2022-11-13T11:39:45;6.78;;;6.18;;
8663;SDS011;4369;47.842;13.096;2022-11-13T11:42:18;6.32;;;5.88;;
8663;SDS011;4369;47.842;13.096;2022-11-13T11:44:56;6.10;;;5.53;;
8663;SDS011;4369;47.842;13.096;2022-11-13T11:47:30;5.80;;;5.40;;
8663;SDS011;4369;47.842;13.096;2022-11-13T11:50:00;6.43;;;5.93;;
8663;SDS011;4369;47.842;13.096;2022-11-13T11:52:41;5.93;;;5.43;;
8663;SDS011;4369;47.842;13.096;2022-11-13T11:55:28;5.80;;;5.38;;
8663;SDS011;4369;47.842;13.096;2022-11-13T11:58:17;6.38;;;5.97;;
8663;SDS011;4369;47.842;13.096;2022-11-13T12:00:57;6.38;;;5.90;;
8663;SDS011;4369;47.842;13.096;2022-11-13T12:03:36;6.82;;;6.22;;
8663;SDS011;4369;47.842;13.096;2022-11-13T12:06:25;6.30;;;5.80;;
8663;SDS011;4369;47.842;13.096;2022-11-13T12:09:01;7.43;;;6.90;;
8663;SDS011;4369;47.842;13.096;2022-11-13T12:11:41;6.60;;;6.00;;
8663;SDS011;4369;47.842;13.096;2022-11-13T12:14:16;6.75;;;6.13;;
8663;SDS011;4369;47.842;13.096;2022-11-13T12:16:56;6.72;;;6.22;;
8663;SDS011;4369;47.842;13.096;2022-11-13T12:19:36;6.50;;;6.05;;
8663;SDS011;4369;47.842;13.096;2022-11-13T12:22:13;6.70;;;6.22;;
8663;SDS011;4369;47.842;13.096;2022-11-13T12:27:24;7.45;;;6.95;;
8663;SDS011;4369;47.842;13.096;2022-11-13T12:30:02;8.05;;;7.35;;
8663;SDS011;4369;47.842;13.096;2022-11-13T12:32:38;8.18;;;7.47;;
8663;SDS011;4369;47.842;13.096;2022-11-13T12:40:30;7.88;;;7.28;;
8663;SDS011;4369;47.842;13.096;2022-11-13T12:43:05;7.60;;;7.00;;
8663;SDS011;4369;47.842;13.096;2022-11-13T12:45:48;7.35;;;6.75;;
8663;SDS011;4369;47.842;13.096;2022-11-13T12:48:24;7.57;;;6.80;;
8663;SDS011;4369;47.842;13.096;2022-11-13T12:51:09;7.30;;;6.70;;
8663;SDS011;4369;47.842;13.096;2022-11-13T12:53:45;7.35;;;6.65;;
8663;SDS011;4369;47.842;13.096;2022-11-13T12:56:15;7.47;;;6.88;;
8663;SDS011;4369;47.842;13.096;2022-11-13T12:58:55;7.70;;;7.10;;
8663;SDS011;4369;47.842;13.096;2022-11-13T13:01:23;7.75;;;7.13;;
8663;SDS011;4369;47.842;13.096;2022-11-13T13:04:01;8.15;;;7.45;;
8663;SDS011;4369;47.842;13.096;2022-11-13T13:06:50;7.80;;;7.20;;
8663;SDS011;4369;47.842;13.096;2022-11-13T13:09:30;8.35;;;7.63;;
8663;SDS011;4369;47.842;13.096;2022-11-13T13:12:11;8.30;;;7.60;;
8663;SDS011;4369;47.842;13.096;2022-11-13T13:14:51;8.90;;;8.07;;
8663;SDS011;4369;47.842;13.096;2022-11-13T13:17:36;7.88;;;7.18;;
8663;SDS011;4369;47.842;13.096;2022-11-13T13:20:06;8.70;;;7.90;;
8663;SDS011;4369;47.842;13.096;2022-11-13T13:22:55;8.80;;;8.10;;
8663;SDS011;4369;47.842;13.096;2022-11-13T13:25:24;8.43;;;7.68;;
8663;SDS011;4369;47.842;13.096;2022-11-13T13:27:57;8.20;;;7.50;;
8663;SDS011;4369;47.842;13.096;2022-11-13T13:30:25;7.07;;;6.57;;
8663;SDS011;4369;47.842;13.096;2022-11-13T13:32:58;6.45;;;5.85;;
8663;SDS011;4369;47.842;13.096;2022-11-13T13:35:35;6.72;;;6.13;;
8663;SDS011;4369;47.842;13.096;2022-11-13T13:38:11;7.50;;;6.80;;
8663;SDS011;4369;47.842;13.096;2022-11-13T13:40:47;6.70;;;6.20;;
8663;SDS011;4369;47.842;13.096;2022-11-13T13:43:31;8.00;;;7.30;;
8663;SDS011;4369;47.842;13.096;2022-11-13T13:46:12;8.27;;;7.50;;
8663;SDS011;4369;47.842;13.096;2022-11-13T13:48:41;8.25;;;7.55;;
8663;SDS011;4369;47.842;13.096;2022-11-13T13:51:13;8.07;;;7.38;;
8663;SDS011;4369;47.842;13.096;2022-11-13T13:53:46;8.23;;;7.53;;
8663;SDS011;4369;47.842;13.096;2022-11-13T13:56:14;7.25;;;6.70;;
8663;SDS011;4369;47.842;13.096;2022-11-13T13:58:44;2.53;;;2.30;;
8663;SDS011;4369;47.842;13.096;2022-11-13T14:01:12;2.13;;;1.60;;
8663;SDS011;4369;47.842;13.096;2022-11-13T14:03:40;2.72;;;1.80;;
8663;SDS011;4369;47.842;13.096;2022-11-13T14:06:08;1.90;;;1.80;;
8663;SDS011;4369;47.842;13.096;2022-11-13T14:08:45;1.40;;;1.40;;
8663;SDS011;4369;47.842;13.096;2022-11-13T14:11:17;1.65;;;1.55;;
8663;SDS011;4369;47.842;13.096;2022-11-13T14:13:47;1.38;;;1.38;;
8663;SDS011;4369;47.842;13.096;2022-11-13T14:16:14;1.67;;;1.58;;
8663;SDS011;4369;47.842;13.096;2022-11-13T14:18:41;1.50;;;1.40;;
8663;SDS011;4369;47.842;13.096;2022-11-13T14:21:09;6.00;;;5.50;;
8663;SDS011;4369;47.842;13.096;2022-11-13T14:23:41;6.10;;;5.60;;
8663;SDS011;4369;47.842;13.096;2022-11-13T14:26:10;7.13;;;6.53;;
8663;SDS011;4369;47.842;13.096;2022-11-13T14:28:45;6.33;;;5.50;;
8663;SDS011;4369;47.842;13.096;2022-11-13T14:31:17;2.30;;;2.10;;
8663;SDS011;4369;47.842;13.096;2022-11-13T14:33:44;1.97;;;1.83;;
8663;SDS011;4369;47.842;13.096;2022-11-13T14:36:13;2.33;;;2.13;;
8663;SDS011;4369;47.842;13.096;2022-11-13T14:38:42;1.70;;;1.60;;
8663;SDS011;4369;47.842;13.096;2022-11-13T14:41:16;2.17;;;1.97;;
8663;SDS011;4369;47.842;13.096;2022-11-13T14:43:51;1.70;;;1.60;;
8663;SDS011;4369;47.842;13.096;2022-11-13T14:46:33;1.70;;;1.60;;
8663;SDS011;4369;47.842;13.096;2022-11-13T14:55:49;4.20;;;3.90;;
8663;SDS011;4369;47.842;13.096;2022-11-13T14:58:24;13.47;;;4.33;;
8663;SDS011;4369;47.842;13.096;2022-11-13T15:00:54;5.57;;;5.00;;
8663;SDS011;4369;47.842;13.096;2022-11-13T15:03:23;4.80;;;4.40;;
8663;SDS011;4369;47.842;13.096;2022-11-13T15:05:51;3.40;;;3.10;;
8663;SDS011;4369;47.842;13.096;2022-11-13T15:08:18;4.70;;;4.17;;
8663;SDS011;4369;47.842;13.096;2022-11-13T15:10:45;4.10;;;3.70;;
8663;SDS011;4369;47.842;13.096;2022-11-13T15:13:12;4.67;;;4.27;;
8663;SDS011;4369;47.842;13.096;2022-11-13T15:15:40;3.30;;;2.90;;
8663;SDS011;4369;47.842;13.096;2022-11-13T15:18:10;5.00;;;4.50;;
8663;SDS011;4369;47.842;13.096;2022-11-13T15:20:41;16.47;;;14.13;;
8663;SDS011;4369;47.842;13.096;2022-11-13T15:23:11;3.23;;;3.03;;
8663;SDS011;4369;47.842;13.096;2022-11-13T15:25:48;2.03;;;1.83;;
8663;SDS011;4369;47.842;13.096;2022-11-13T15:30:55;2.57;;;2.37;;
8663;SDS011;4369;47.842;13.096;2022-11-13T15:33:24;5.87;;;5.30;;
8663;SDS011;4369;47.842;13.096;2022-11-13T15:35:52;2.60;;;2.40;;
8663;SDS011;4369;47.842;13.096;2022-11-13T15:38:19;3.30;;;3.00;;
8663;SDS011;4369;47.842;13.096;2022-11-13T15:40:46;3.47;;;2.90;;
8663;SDS011;4369;47.842;13.096;2022-11-13T15:43:16;3.07;;;2.83;;
8663;SDS011;4369;47.842;13.096;2022-11-13T15:50:50;2.57;;;2.37;;
8663;SDS011;4369;47.842;13.096;2022-11-13T15:53:17;2.10;;;1.97;;
8663;SDS011;4369;47.842;13.096;2022-11-13T15:55:45;2.20;;;2.00;;
8663;SDS011;4369;47.842;13.096;2022-11-13T15:58:13;2.10;;;2.00;;
8663;SDS011;4369;47.842;13.096;2022-11-13T16:00:41;1.90;;;1.80;;
8663;SDS011;4369;47.842;13.096;2022-11-13T16:03:10;2.20;;;2.00;;
8663;SDS011;4369;47.842;13.096;2022-11-13T16:05:38;21.53;;;19.90;;
8663;SDS011;4369;47.842;13.096;2022-11-13T16:10:39;2.57;;;2.37;;
8663;SDS011;4369;47.842;13.096;2022-11-13T16:15:36;2.33;;;1.67;;
8663;SDS011;4369;47.842;13.096;2022-11-13T16:18:03;1.70;;;1.60;;
8663;SDS011;4369;47.842;13.096;2022-11-13T16:20:34;1.70;;;1.57;;
8663;SDS011;4369;47.842;13.096;2022-11-13T16:40:59;5.33;;;4.80;;
8663;SDS011;4369;47.842;13.096;2022-11-13T16:46:02;1.97;;;1.87;;
8663;SDS011;4369;47.842;13.096;2022-11-13T16:48:43;2.20;;;2.10;;
8663;SDS011;4369;47.842;13.096;2022-11-13T16:56:23;2.30;;;1.87;;
8663;SDS011;4369;47.842;13.096;2022-11-13T17:06:39;2.17;;;2.07;;
8663;SDS011;4369;47.842;13.096;2022-11-13T17:09:06;2.00;;;1.87;;
8663;SDS011;4369;47.842;13.096;2022-11-13T17:14:10;2.77;;;2.10;;
8663;SDS011;4369;47.842;13.096;2022-11-13T17:19:12;2.30;;;2.10;;
8663;SDS011;4369;47.842;13.096;2022-11-13T17:24:15;2.27;;;2.17;;
8663;SDS011;4369;47.842;13.096;2022-11-13T17:26:42;2.30;;;2.20;;
8663;SDS011;4369;47.842;13.096;2022-11-13T17:29:11;2.30;;;2.10;;